Time;durP1;ratioP1;P1;durP2;ratioP2;P2;SDS_P1;SDS_P2;PMS_P1;PMS_P2;Temp;Humidity;BMP_temperature;BMP_pressure;BME280_temperature;BME280_humidity;BME280_pressure;Samples;Min_cycle;Max_cycle;Signal;HPM_P1;HPM_P2
2022/12/15 00:39:40;;;;;;;34.87;15.40;;;;;;;41.34;37.91;100850.72;5094462;28;20464;-74
2022/12/15 00:42:07;;;;;;;40.07;17.40;;;;;;;41.48;38.22;100845.03;5075747;28;20420;-74
2022/12/15 00:44:33;;;;;;;31.50;17.33;;;;;;;41.25;38.05;100836.38;5094173;28;20459;-72
2022/12/15 00:47:00;;;;;;;37.23;15.43;;;;;;;41.24;38.12;100842.91;5075643;28;20943;-72
2022/12/15 01:22:36;;;;;;;31.40;18.10;;;;;;;40.86;38.70;100810.28;5093123;28;20435;-73
2022/12/15 01:25:03;;;;;;;31.47;15.90;;;;;;;41.21;38.12;100815.56;5074977;28;20468;-74
2022/12/15 01:27:29;;;;;;;30.23;15.87;;;;;;;40.97;38.50;100813.47;5074904;28;20424;-74
2022/12/15 01:29:55;;;;;;;32.60;16.40;;;;;;;40.87;38.65;100811.09;5062407;28;20436;-71
2022/12/15 01:32:21;;;;;;;28.10;17.10;;;;;;;40.65;38.86;100806.72;5074393;28;20502;-72
2022/12/15 01:34:47;;;;;;;30.80;15.27;;;;;;;40.78;38.53;100798.34;5071116;28;20554;-73
2022/12/15 01:37:13;;;;;;;34.67;18.43;;;;;;;40.73;38.53;100790.34;5064951;28;20514;-73
2022/12/15 01:42:24;;;;;;;31.10;18.90;;;;;;;41.30;37.58;100795.31;5060029;28;20443;-73
2022/12/15 01:44:52;;;;;;;32.60;15.67;;;;;;;41.33;37.60;100788.47;5072727;28;20452;-71
2022/12/15 01:47:23;;;;;;;21.77;16.47;;;;;;;40.97;38.13;100783.56;5065687;28;20914;-74
2022/12/15 01:49:50;;;;;;;26.63;15.13;;;;;;;40.64;38.54;100784.19;5063571;28;20936;-74
2022/12/15 01:52:17;;;;;;;35.70;16.40;;;;;;;40.25;39.41;100777.88;5071148;28;20804;-74
2022/12/15 01:54:54;;;;;;;30.03;16.63;;;;;;;40.34;39.33;100783.31;5061961;28;20411;-72
2022/12/15 01:57:28;;;;;;;24.77;13.30;;;;;;;40.81;38.25;100784.06;5069259;28;20414;-72
2022/12/15 01:59:59;;;;;;;31.13;17.50;;;;;;;40.84;38.11;100773.69;5071149;28;20442;-72
2022/12/15 02:02:29;;;;;;;39.53;18.37;;;;;;;41.19;37.52;100776.97;5072459;28;20410;-72
2022/12/15 02:04:57;;;;;;;25.10;15.37;;;;;;;41.36;37.18;100768.72;5070963;28;20465;-72
2022/12/15 02:07:23;;;;;;;30.00;16.07;;;;;;;41.33;36.80;100767.47;5070938;28;20442;-72
2022/12/15 02:09:52;;;;;;;26.90;16.73;;;;;;;41.25;37.24;100765.59;5071062;28;20433;-74
2022/12/15 02:12:39;;;;;;;32.70;14.90;;;;;;;41.41;36.96;100775.91;5070866;28;20501;-74
2022/12/15 02:15:20;;;;;;;29.47;15.10;;;;;;;41.26;37.05;100778.06;5060756;28;20477;-72
2022/12/15 02:18:07;;;;;;;40.70;15.80;;;;;;;41.23;37.13;100780.66;5062298;28;20528;-71
2022/12/15 02:20:39;;;;;;;31.77;16.27;;;;;;;41.28;37.05;100775.81;5057581;28;20427;-74
2022/12/15 02:23:14;;;;;;;38.20;15.10;;;;;;;41.17;37.14;100766.44;5056711;28;21025;-74
2022/12/15 02:26:04;;;;;;;28.00;14.93;;;;;;;41.24;36.71;100777.59;5070969;28;20459;-72
2022/12/15 02:29:01;;;;;;;34.33;16.77;;;;;;;40.95;37.67;100775.72;5059365;28;21002;-72
2022/12/15 02:31:49;;;;;;;33.87;15.00;;;;;;;40.67;37.82;100766.41;5070569;28;20455;-71
2022/12/15 02:34:48;;;;;;;23.03;13.70;;;;;;;41.00;37.19;100772.00;5070599;28;20433;-73
2022/12/15 02:37:18;;;;;;;31.37;15.00;;;;;;;40.79;37.45;100780.09;5050682;28;20434;-73
2022/12/15 02:39:45;;;;;;;33.67;17.20;;;;;;;41.05;36.99;100783.47;5050665;28;20457;-74
2022/12/15 02:42:11;;;;;;;34.87;16.07;;;;;;;40.93;37.47;100779.88;5050422;28;20429;-71
2022/12/15 02:44:51;;;;;;;30.27;16.97;;;;;;;40.99;37.25;100782.09;5051193;28;20488;-73
2022/12/15 02:47:38;;;;;;;30.30;14.83;;;;;;;41.25;37.00;100776.50;5054541;28;20930;-74
2022/12/15 02:50:04;;;;;;;25.80;14.67;;;;;;;41.11;37.48;100781.38;5054472;28;20783;-74
2022/12/15 02:52:48;;;;;;;48.20;17.80;;;;;;;41.09;37.23;100778.19;5054451;28;21008;-73
2022/12/15 02:55:51;;;;;;;30.40;16.43;;;;;;;41.14;36.99;100771.75;5055867;28;20180;-74
2022/12/15 02:58:43;;;;;;;24.10;14.37;;;;;;;40.70;38.18;100773.88;5054345;28;20422;-73
2022/12/15 03:01:17;;;;;;;33.47;14.80;;;;;;;40.86;37.33;100771.41;5054586;28;20411;-74
2022/12/15 03:03:45;;;;;;;35.77;19.40;;;;;;;40.62;38.63;100763.84;5053949;28;20905;-72
2022/12/15 03:06:11;;;;;;;30.63;16.77;;;;;;;41.11;37.50;100769.69;5054379;28;20460;-72
2022/12/15 03:08:37;;;;;;;34.33;17.60;;;;;;;41.25;37.07;100762.06;5054239;28;20481;-74
2022/12/15 03:11:03;;;;;;;31.60;14.47;;;;;;;41.45;36.74;100771.41;5055460;28;20855;-72
2022/12/15 03:13:29;;;;;;;33.23;16.20;;;;;;;41.19;37.11;100768.81;5054156;28;20529;-72
2022/12/15 03:15:57;;;;;;;52.30;18.40;;;;;;;40.70;37.44;100765.72;5053883;28;20506;-72
2022/12/15 03:18:23;;;;;;;24.83;13.97;;;;;;;40.71;37.54;100770.88;5054160;28;20422;-72
2022/12/15 03:20:48;;;;;;;27.93;13.27;;;;;;;41.03;36.89;100763.19;5052056;28;20438;-72
2022/12/15 03:23:15;;;;;;;33.00;15.80;;;;;;;40.65;38.25;100769.44;5052248;28;20538;-71
2022/12/15 03:25:46;;;;;;;29.67;16.40;;;;;;;40.64;37.88;100781.47;5055084;28;20814;-74
2022/12/15 03:28:12;;;;;;;31.10;17.23;;;;;;;40.60;38.55;100772.34;5053873;28;20414;-74
2022/12/15 03:30:38;;;;;;;33.43;17.97;;;;;;;39.18;41.34;100778.53;5053919;28;21012;-72
2022/12/15 03:33:04;;;;;;;30.93;20.87;;;;;;;39.55;40.69;100776.34;5053486;28;20465;-70
2022/12/15 03:35:30;;;;;;;46.60;23.90;;;;;;;39.47;41.11;100771.69;5073830;28;20483;-74
2022/12/15 03:37:56;;;;;;;33.47;21.93;;;;;;;39.56;40.69;100777.13;5077150;28;20459;-73
2022/12/15 03:40:22;;;;;;;36.47;23.40;;;;;;;39.94;39.84;100767.22;5095141;28;20928;-73
2022/12/15 03:42:48;;;;;;;34.27;22.90;;;;;;;40.44;39.13;100777.50;5076997;28;20872;-73
2022/12/15 03:45:22;;;;;;;33.77;22.70;;;;;;;40.04;39.89;100776.97;5076949;28;20543;-71
2022/12/15 03:47:49;;;;;;;31.63;22.33;;;;;;;39.92;40.11;100777.59;5076949;28;20474;-71
2022/12/15 03:50:18;;;;;;;33.97;21.23;;;;;;;40.00;39.79;100776.00;5077075;28;20424;-74
2022/12/15 03:52:44;;;;;;;25.03;19.77;;;;;;;40.14;39.64;100781.25;5076873;28;20421;-74
2022/12/15 03:55:11;;;;;;;37.73;21.83;;;;;;;39.68;40.03;100783.53;5076407;28;20424;-71
2022/12/15 03:57:36;;;;;;;32.43;21.50;;;;;;;40.21;39.31;100789.75;5070122;28;20429;-72
2022/12/15 04:00:05;;;;;;;40.67;23.87;;;;;;;40.06;39.39;100782.09;5069049;28;20417;-73
2022/12/15 04:02:31;;;;;;;34.37;22.60;;;;;;;40.13;39.73;100785.09;5061722;28;20834;-72
2022/12/15 04:04:57;;;;;;;38.03;22.43;;;;;;;40.25;39.38;100796.09;5076466;28;20593;-73
2022/12/15 04:07:23;;;;;;;35.33;20.03;;;;;;;39.88;39.95;100792.16;5076752;28;20519;-73
2022/12/15 04:09:49;;;;;;;47.17;20.40;;;;;;;39.85;40.31;100799.03;5073276;28;20517;-73
2022/12/15 04:12:15;;;;;;;34.53;20.30;;;;;;;40.37;39.04;100804.38;5076404;28;20519;-74
2022/12/15 04:14:41;;;;;;;33.77;21.40;;;;;;;40.51;38.97;100807.72;5075298;28;20436;-72
2022/12/15 04:17:09;;;;;;;46.13;24.60;;;;;;;40.32;39.50;100801.84;5076364;28;20582;-72
2022/12/15 04:22:20;;;;;;;43.00;22.40;;;;;;;40.07;39.36;100811.63;5080461;28;20443;-72
2022/12/15 05:33:22;;;;;;;53.30;25.83;;;;;;;40.99;37.28;100880.03;5089603;28;20419;-72
2022/12/15 05:35:48;;;;;;;43.83;24.60;;;;;;;41.06;37.33;100871.34;5071432;28;20469;-72
2022/12/15 05:38:15;;;;;;;42.60;25.03;;;;;;;41.10;36.82;100888.63;5071325;28;20417;-73
2022/12/15 05:40:41;;;;;;;39.80;26.13;;;;;;;41.03;37.47;100891.06;5071463;28;20418;-73
2022/12/15 05:43:07;;;;;;;42.47;28.40;;;;;;;40.94;37.21;100891.09;5071172;28;20458;-74
2022/12/15 05:45:33;;;;;;;71.27;39.80;;;;;;;40.98;37.36;100888.53;5072529;28;20446;-74
2022/12/15 05:47:58;;;;;;;66.97;35.17;;;;;;;40.03;38.82;100895.69;5071262;28;20520;-72
2022/12/15 05:50:24;;;;;;;65.30;30.27;;;;;;;40.13;38.65;100894.59;5071097;28;20440;-74
2022/12/15 05:52:50;;;;;;;61.50;29.03;;;;;;;39.88;39.32;100896.16;5057096;28;20425;-74
2022/12/15 05:55:17;;;;;;;53.03;35.13;;;;;;;40.39;38.71;100901.91;5063958;28;20514;-73
2022/12/15 05:57:49;;;;;;;52.00;32.37;;;;;;;40.68;37.78;100898.53;5062362;28;20474;-73
2022/12/15 06:00:15;;;;;;;49.37;32.03;;;;;;;40.55;37.92;100903.84;5070709;28;20421;-74
2022/12/15 06:02:41;;;;;;;54.57;33.67;;;;;;;40.70;38.04;100905.25;5053248;28;20422;-72
2022/12/15 06:05:07;;;;;;;63.30;32.13;;;;;;;40.90;37.85;100905.66;5069535;28;20468;-73
2022/12/15 06:07:34;;;;;;;42.77;29.87;;;;;;;40.89;37.48;100912.22;5071038;28;20406;-72
2022/12/15 06:10:00;;;;;;;66.60;35.00;;;;;;;40.99;37.48;100917.31;5069482;28;20430;-73
2022/12/15 06:12:25;;;;;;;60.23;37.23;;;;;;;40.96;37.31;100920.72;5068589;28;20441;-75
2022/12/15 06:14:51;;;;;;;66.13;36.33;;;;;;;40.80;37.63;100917.69;5062970;28;20423;-74
2022/12/15 06:17:17;;;;;;;42.30;32.27;;;;;;;40.96;37.46;100920.72;5067466;28;20424;-76
2022/12/15 06:19:43;;;;;;;50.20;30.97;;;;;;;40.81;37.65;100925.50;5067498;28;20420;-75
2022/12/15 06:22:09;;;;;;;37.93;28.67;;;;;;;41.05;37.35;100932.34;5069859;28;20434;-71
2022/12/15 06:24:35;;;;;;;62.43;33.60;;;;;;;40.96;37.43;100923.44;5071855;28;20984;-76
2022/12/15 06:27:01;;;;;;;53.20;33.67;;;;;;;41.02;37.37;100933.00;5067893;28;20488;-77
2022/12/15 06:29:27;;;;;;;67.80;36.57;;;;;;;40.96;37.32;100934.31;5053901;28;20938;-74
2022/12/15 06:31:53;;;;;;;60.00;35.73;;;;;;;40.91;37.41;100942.66;5069858;28;20433;-74
2022/12/15 06:34:20;;;;;;;64.97;35.50;;;;;;;39.44;39.83;100941.41;5070458;28;20474;-76
2022/12/15 06:36:46;;;;;;;57.20;40.83;;;;;;;39.76;39.49;100953.81;5069516;28;20560;-77
2022/12/15 06:39:14;;;;;;;67.17;40.30;;;;;;;39.23;40.59;100938.47;5071473;28;20433;-77
2022/12/15 06:41:40;;;;;;;65.40;41.53;;;;;;;39.70;39.98;100951.56;5055513;28;20581;-77
2022/12/15 06:44:07;;;;;;;71.77;45.80;;;;;;;40.00;39.30;100953.38;5070460;28;20421;-77
2022/12/15 06:46:33;;;;;;;77.30;45.27;;;;;;;40.05;38.99;100949.72;5060456;28;20439;-77
2022/12/15 06:49:00;;;;;;;71.80;42.40;;;;;;;40.07;39.22;100957.56;5068823;28;20405;-75
2022/12/15 06:51:26;;;;;;;70.90;42.30;;;;;;;40.41;38.72;100959.50;5068847;28;20812;-78
2022/12/15 06:53:54;;;;;;;65.30;42.03;;;;;;;40.50;38.28;100957.56;5068389;28;20484;-78
2022/12/15 06:56:23;;;;;;;71.77;40.83;;;;;;;40.42;38.91;100969.25;5068572;28;20464;-78
2022/12/15 06:58:50;;;;;;;78.50;40.20;;;;;;;40.49;38.54;100962.22;5068435;28;20417;-75
2022/12/15 07:01:18;;;;;;;69.53;39.50;;;;;;;40.08;39.37;100968.09;5068667;28;20417;-77
2022/12/15 07:03:44;;;;;;;65.90;40.33;;;;;;;40.47;38.57;100982.66;5068164;28;20533;-74
2022/12/15 07:06:12;;;;;;;58.23;37.60;;;;;;;40.14;39.12;100983.13;5057385;28;20422;-74
2022/12/15 07:08:38;;;;;;;49.67;35.20;;;;;;;40.11;39.38;100974.84;5070506;28;20504;-77
2022/12/15 07:11:06;;;;;;;46.03;30.80;;;;;;;40.53;38.27;100989.56;5070123;28;20433;-76
2022/12/15 07:13:32;;;;;;;58.23;36.90;;;;;;;40.45;38.95;100999.28;5071789;28;20542;-77
2022/12/15 07:16:03;;;;;;;55.90;33.13;;;;;;;40.14;39.38;101004.88;5070385;28;20413;-73
2022/12/15 07:18:29;;;;;;;47.93;32.50;;;;;;;40.03;39.56;101006.28;5070430;28;20422;-76
2022/12/15 07:21:00;;;;;;;67.90;36.27;;;;;;;40.39;38.86;101013.34;5070200;28;20486;-74
2022/12/15 07:23:26;;;;;;;62.97;35.40;;;;;;;40.02;39.50;101007.38;5071973;28;20603;-75
2022/12/15 07:25:52;;;;;;;63.07;40.20;;;;;;;40.03;39.39;101011.72;5070125;28;20444;-74
2022/12/15 07:28:18;;;;;;;64.80;42.47;;;;;;;40.65;37.95;101005.25;5071786;28;20418;-74
2022/12/15 07:30:44;;;;;;;69.13;36.77;;;;;;;40.66;38.00;101015.78;5070893;28;20410;-74
2022/12/15 07:33:10;;;;;;;53.17;34.63;;;;;;;40.27;38.22;101019.44;5059308;28;20938;-74
2022/12/15 07:35:36;;;;;;;49.00;33.63;;;;;;;40.49;38.58;101024.75;5073601;28;20496;-76
2022/12/15 07:38:05;;;;;;;63.23;35.10;;;;;;;40.13;38.96;101022.28;5060543;28;20506;-74
2022/12/15 07:40:32;;;;;;;56.70;37.77;;;;;;;40.47;38.21;101027.00;5074335;28;20501;-74
2022/12/15 07:42:58;;;;;;;51.20;34.03;;;;;;;40.54;37.88;101027.31;5073702;28;20435;-74
2022/12/15 07:45:24;;;;;;;60.50;40.10;;;;;;;40.46;38.37;101035.44;5073488;28;20418;-73
2022/12/15 07:47:50;;;;;;;58.03;35.73;;;;;;;39.96;39.23;101033.09;5064675;28;20436;-73
2022/12/15 07:50:17;;;;;;;54.57;34.87;;;;;;;40.31;38.66;101035.91;5073390;28;20786;-73
2022/12/15 07:52:45;;;;;;;61.40;37.57;;;;;;;40.19;38.75;101031.09;5073464;28;20410;-75
2022/12/15 07:55:11;;;;;;;70.60;39.87;;;;;;;39.45;40.22;101029.88;5072881;28;20536;-75
2022/12/15 07:57:37;;;;;;;51.57;35.23;;;;;;;40.03;39.31;101034.25;5068593;28;20426;-73
2022/12/15 08:00:07;;;;;;;55.80;34.80;;;;;;;40.22;38.70;101025.03;5074674;28;20417;-73
2022/12/15 08:02:33;;;;;;;60.97;36.40;;;;;;;39.99;39.47;101032.47;5068344;28;20415;-73
2022/12/15 08:04:59;;;;;;;71.73;34.03;;;;;;;39.62;39.98;101028.38;5063934;28;20441;-74
2022/12/15 08:07:25;;;;;;;55.77;35.97;;;;;;;39.94;39.79;101025.28;5072296;28;20432;-72
2022/12/15 08:09:52;;;;;;;58.57;30.67;;;;;;;40.14;39.51;101031.25;5073242;28;20994;-72
2022/12/15 08:12:18;;;;;;;54.40;34.90;;;;;;;39.97;40.09;101026.56;5074404;28;20925;-70
2022/12/15 08:14:44;;;;;;;59.00;34.40;;;;;;;40.03;39.95;101033.47;5072977;28;20465;-72
2022/12/15 08:17:10;;;;;;;49.00;28.63;;;;;;;40.37;39.15;101026.47;5072899;28;20417;-72
2022/12/15 08:19:36;;;;;;;49.20;32.93;;;;;;;39.52;40.80;101026.69;5067560;28;20422;-72
2022/12/15 08:22:02;;;;;;;53.10;32.40;;;;;;;39.47;40.91;101027.66;5064387;28;20422;-74
2022/12/15 08:24:28;;;;;;;43.70;28.33;;;;;;;40.21;39.77;101035.13;5072704;28;20849;-75
2022/12/15 08:26:54;;;;;;;49.73;31.33;;;;;;;40.95;38.44;101041.56;5063561;28;20423;-74
2022/12/15 08:29:20;;;;;;;45.53;28.80;;;;;;;40.18;39.65;101032.22;5067959;28;20504;-74
2022/12/15 08:31:46;;;;;;;54.73;29.07;;;;;;;38.50;42.51;101029.22;5072718;28;20521;-72
2022/12/15 08:34:12;;;;;;;55.27;28.03;;;;;;;40.11;39.54;101026.47;5072668;28;20544;-74
2022/12/15 08:36:38;;;;;;;46.60;26.60;;;;;;;40.65;38.92;101027.78;5072283;28;20519;-74
2022/12/15 08:39:04;;;;;;;49.00;27.90;;;;;;;39.87;40.08;101018.72;5072918;28;20421;-72
2022/12/15 08:41:31;;;;;;;62.23;28.37;;;;;;;40.06;39.62;101015.75;5072831;28;20908;-72
2022/12/15 08:43:59;;;;;;;44.57;23.50;;;;;;;40.36;39.14;101022.97;5072468;28;20441;-72
2022/12/15 08:46:28;;;;;;;45.13;25.97;;;;;;;40.29;38.96;101012.56;5072581;28;21009;-73
2022/12/15 08:48:54;;;;;;;50.80;24.37;;;;;;;39.52;40.63;101012.34;5072270;28;20421;-72
2022/12/15 08:51:22;;;;;;;57.57;25.20;;;;;;;40.61;38.59;101015.16;5073933;28;20426;-72
2022/12/15 08:53:48;;;;;;;36.80;22.07;;;;;;;40.43;38.37;101009.69;5057930;28;20454;-72
2022/12/15 08:56:17;;;;;;;35.80;22.43;;;;;;;40.51;38.44;101000.75;5072087;28;20449;-74
2022/12/15 08:58:44;;;;;;;46.33;20.50;;;;;;;40.93;37.67;101005.69;5072139;28;20422;-74
2022/12/15 09:01:16;;;;;;;34.53;20.13;;;;;;;41.27;37.04;101012.97;5064608;28;20425;-73
2022/12/15 09:03:43;;;;;;;36.20;21.73;;;;;;;41.44;36.54;101017.56;5066501;28;20492;-73
2022/12/15 09:06:18;;;;;;;41.40;21.47;;;;;;;40.90;36.75;101012.59;5071960;28;20410;-72
2022/12/15 09:08:44;;;;;;;46.37;21.43;;;;;;;41.23;36.74;101025.63;5072082;28;20833;-75
2022/12/15 09:11:11;;;;;;;33.30;20.23;;;;;;;41.69;36.28;101026.75;5071612;28;20456;-75
2022/12/15 09:13:37;;;;;;;33.93;19.17;;;;;;;41.13;36.83;101028.69;5071945;28;20475;-73
2022/12/15 09:16:06;;;;;;;36.50;20.27;;;;;;;41.69;35.75;101024.03;5071740;28;20513;-73
2022/12/15 09:18:33;;;;;;;37.33;19.20;;;;;;;41.26;36.20;101027.69;5072135;28;20456;-75
2022/12/15 09:21:04;;;;;;;31.33;17.97;;;;;;;40.97;36.52;101031.13;5071830;28;20418;-75
2022/12/15 09:23:30;;;;;;;38.13;20.07;;;;;;;41.68;36.00;101031.41;5071524;28;20964;-75
2022/12/15 09:26:11;;;;;;;39.30;18.33;;;;;;;41.65;35.86;101039.41;5071669;28;20430;-75
2022/12/15 09:28:38;;;;;;;49.97;18.90;;;;;;;41.08;36.94;101037.84;5071790;28;20426;-76
2022/12/15 09:31:09;;;;;;;38.10;19.30;;;;;;;41.37;36.27;101028.16;5071501;28;20441;-76
2022/12/15 09:33:36;;;;;;;40.87;19.07;;;;;;;41.47;36.30;101022.34;5071348;28;20457;-76
2022/12/15 09:36:03;;;;;;;29.67;19.53;;;;;;;41.51;36.45;101029.53;5071444;28;20606;-76
2022/12/15 09:38:30;;;;;;;38.17;18.30;;;;;;;41.36;36.22;101040.16;5072682;28;20475;-76
2022/12/15 09:40:56;;;;;;;35.27;17.20;;;;;;;41.31;36.53;101022.06;5071536;28;20412;-75
2022/12/15 09:43:25;;;;;;;37.40;19.47;;;;;;;41.06;37.19;101029.19;5071231;28;20488;-74
2022/12/15 09:46:06;;;;;;;32.37;16.57;;;;;;;41.21;36.93;101017.78;5071419;28;20501;-74
2022/12/15 09:48:39;;;;;;;36.37;19.07;;;;;;;41.77;36.13;101023.19;5071148;28;20801;-74
2022/12/15 09:51:12;;;;;;;38.50;18.00;;;;;;;41.08;36.73;101024.22;5071279;28;20835;-74
2022/12/15 09:53:38;;;;;;;41.00;18.30;;;;;;;41.42;36.76;101011.63;5070759;28;20445;-73
2022/12/15 09:56:12;;;;;;;35.20;21.60;;;;;;;41.74;36.46;101018.34;5071185;28;20502;-74
2022/12/15 09:58:52;;;;;;;30.77;19.17;;;;;;;41.94;36.03;101011.41;5070506;28;20895;-73
2022/12/15 10:01:42;;;;;;;39.40;16.27;;;;;;;41.40;36.57;101013.91;5059620;28;20937;-75
2022/12/15 10:04:41;;;;;;;38.77;17.87;;;;;;;41.82;35.74;101017.56;5070999;28;20409;-75
2022/12/15 10:07:26;;;;;;;31.40;18.93;;;;;;;41.76;36.30;101008.78;5070527;28;20509;-73
2022/12/15 10:09:52;;;;;;;32.10;16.97;;;;;;;41.55;35.77;101010.59;5071162;28;20430;-74
2022/12/15 10:12:26;;;;;;;41.33;16.27;;;;;;;41.92;35.06;101006.25;5070652;28;20445;-74
2022/12/15 10:14:55;;;;;;;32.20;16.80;;;;;;;41.65;35.84;101023.88;5071001;28;20980;-73
2022/12/15 10:17:50;;;;;;;28.63;17.40;;;;;;;42.09;35.01;101019.78;5070736;28;20429;-74
2022/12/15 10:20:23;;;;;;;27.50;16.27;;;;;;;41.88;35.37;101027.13;5068789;28;20421;-76
2022/12/15 10:22:50;;;;;;;29.73;15.40;;;;;;;42.17;34.82;101026.31;5070580;28;20414;-76
2022/12/15 10:25:30;;;;;;;27.37;16.27;;;;;;;41.72;35.37;101026.88;5070808;28;20803;-76
2022/12/15 10:28:07;;;;;;;39.67;15.33;;;;;;;42.07;34.85;101037.59;5068627;28;20421;-74
2022/12/15 10:30:34;;;;;;;32.90;16.43;;;;;;;42.27;34.21;101028.66;5070828;28;20504;-74
2022/12/15 10:33:18;;;;;;;40.43;21.40;;;;;;;41.98;34.90;101023.22;5070693;28;20422;-76
2022/12/15 10:35:45;;;;;;;53.87;18.90;;;;;;;42.25;34.76;101011.03;5058686;28;20465;-75
2022/12/15 10:38:41;;;;;;;35.83;18.60;;;;;;;41.89;35.64;101008.88;5070700;28;20500;-76
2022/12/15 10:41:30;;;;;;;36.37;19.10;;;;;;;41.84;35.36;101007.91;5062728;28;20453;-75
2022/12/15 10:43:56;;;;;;;45.93;17.53;;;;;;;41.71;35.92;100998.03;5064649;28;20467;-74
2022/12/15 10:46:25;;;;;;;32.97;17.60;;;;;;;41.93;35.42;100993.44;5070666;28;20450;-74
2022/12/15 10:49:11;;;;;;;38.63;16.50;;;;;;;42.23;34.79;100995.00;5070526;28;20417;-74
2022/12/15 10:51:55;;;;;;;40.43;20.27;;;;;;;42.30;35.06;100989.84;5053712;28;20461;-74
2022/12/15 10:54:21;;;;;;;31.70;16.70;;;;;;;42.27;35.03;100976.84;5057755;28;20457;-74
2022/12/15 10:56:55;;;;;;;49.17;19.20;;;;;;;41.98;35.34;100977.69;5057252;28;20422;-72
2022/12/15 10:59:28;;;;;;;40.80;16.80;;;;;;;42.23;35.36;100965.00;5057068;28;20779;-73
2022/12/15 11:01:54;;;;;;;36.30;18.67;;;;;;;41.79;36.09;100961.00;5070473;28;20426;-73
2022/12/15 11:04:34;;;;;;;33.10;15.77;;;;;;;41.72;35.94;100961.50;5070343;28;20443;-74
2022/12/15 11:07:02;;;;;;;40.17;18.53;;;;;;;41.76;35.51;100957.03;5073126;28;20471;-74
2022/12/15 11:09:32;;;;;;;46.20;15.17;;;;;;;42.04;34.82;100957.28;5074491;28;20418;-75
2022/12/15 11:14:46;;;;;;;33.27;18.03;;;;;;;41.91;35.06;100941.19;5062497;28;20578;-75
2022/12/15 11:17:17;;;;;;;30.70;17.03;;;;;;;42.03;34.55;100936.63;5074184;28;20418;-75
2022/12/15 11:19:52;;;;;;;31.37;15.90;;;;;;;42.21;34.59;100936.50;5074218;28;20413;-75
2022/12/15 11:22:23;;;;;;;38.27;20.93;;;;;;;41.88;35.35;100942.69;5074067;28;20429;-74
2022/12/15 11:24:53;;;;;;;28.27;15.90;;;;;;;42.04;35.24;100931.97;5074111;28;20498;-74
2022/12/15 11:27:28;;;;;;;31.53;17.60;;;;;;;41.89;35.50;100927.13;5073879;28;20445;-73
2022/12/15 11:29:58;;;;;;;32.60;16.83;;;;;;;41.84;35.45;100936.28;5060047;28;20449;-75
2022/12/15 11:32:30;;;;;;;31.67;16.27;;;;;;;41.91;34.92;100935.75;5073800;28;20508;-76
2022/12/15 11:34:57;;;;;;;35.77;17.70;;;;;;;41.63;36.12;100930.00;5073534;28;21034;-75
2022/12/15 11:37:38;;;;;;;34.27;17.93;;;;;;;41.39;36.15;100933.34;5073810;28;20426;-74
2022/12/15 11:40:14;;;;;;;38.87;19.10;;;;;;;42.16;35.38;100940.22;5073740;28;20459;-76
2022/12/15 11:42:55;;;;;;;33.27;17.40;;;;;;;42.03;35.36;100944.00;5073668;28;20421;-75
2022/12/15 11:45:30;;;;;;;33.10;16.70;;;;;;;41.45;36.04;100932.84;5073388;28;20467;-73
2022/12/15 11:48:18;;;;;;;28.23;16.00;;;;;;;42.18;35.56;100935.25;5062952;28;20418;-75
2022/12/15 11:51:13;;;;;;;39.43;18.50;;;;;;;42.42;34.33;100920.91;5072891;28;20793;-76
2022/12/15 11:54:09;;;;;;;34.43;18.30;;;;;;;42.51;34.67;100912.63;5071841;28;20544;-75
2022/12/15 11:56:45;;;;;;;48.97;18.00;;;;;;;41.83;35.50;100905.53;5065192;28;20426;-72
2022/12/15 11:59:41;;;;;;;33.03;16.80;;;;;;;41.61;36.25;100911.25;5074545;28;20424;-74
2022/12/15 12:02:29;;;;;;;27.27;15.97;;;;;;;42.33;34.99;100912.00;5073058;28;20425;-73
2022/12/15 12:05:01;;;;;;;35.97;21.00;;;;;;;41.96;35.06;100909.09;5073356;28;20784;-74
2022/12/15 12:07:49;;;;;;;39.57;16.40;;;;;;;42.26;34.45;100898.13;5073213;28;20425;-74
2022/12/15 12:10:15;;;;;;;46.80;19.57;;;;;;;42.52;34.31;100898.66;5073123;28;20421;-76
2022/12/15 12:13:31;;;;;;;32.50;17.67;;;;;;;42.64;34.15;100895.97;5073124;28;20791;-75
2022/12/15 12:16:32;;;;;;;43.50;17.90;;;;;;;42.76;34.11;100886.22;5051641;28;20203;-75
2022/12/15 12:19:20;;;;;;;34.43;16.00;;;;;;;42.36;35.05;100887.59;5073108;28;20483;-76
2022/12/15 12:21:50;;;;;;;28.93;15.90;;;;;;;42.30;35.00;100888.97;5062088;28;20425;-76
2022/12/15 12:24:26;;;;;;;34.23;18.50;;;;;;;42.86;34.05;100875.66;5057039;28;21017;-74
2022/12/15 12:27:02;;;;;;;37.80;16.70;;;;;;;42.25;34.39;100872.81;5063395;28;20961;-74
2022/12/15 12:29:28;;;;;;;39.73;17.10;;;;;;;42.49;34.01;100866.63;5072618;28;20941;-76
2022/12/15 12:32:03;;;;;;;29.70;18.40;;;;;;;42.39;34.40;100862.38;5072874;28;20447;-76
2022/12/15 12:34:44;;;;;;;34.60;16.37;;;;;;;42.32;34.70;100864.06;5072558;28;20218;-76
2022/12/15 12:37:26;;;;;;;30.30;19.20;;;;;;;42.56;34.57;100850.50;5076167;28;20928;-75
2022/12/15 12:40:01;;;;;;;33.23;18.93;;;;;;;42.54;34.76;100839.13;5075885;28;20472;-73
2022/12/15 12:42:55;;;;;;;25.50;16.27;;;;;;;42.65;34.77;100831.31;5076109;28;20966;-76
2022/12/15 12:45:40;;;;;;;33.07;17.47;;;;;;;42.05;35.18;100822.63;5064516;28;20422;-75
2022/12/15 12:48:16;;;;;;;46.23;17.47;;;;;;;42.26;35.31;100814.41;5067619;28;20478;-75
2022/12/15 12:50:42;;;;;;;41.17;16.50;;;;;;;42.85;33.94;100805.88;5075650;28;20420;-75
2022/12/15 12:53:26;;;;;;;33.10;16.00;;;;;;;42.58;34.04;100806.53;5093939;28;21034;-72
2022/12/15 12:55:53;;;;;;;49.90;16.60;;;;;;;42.46;34.43;100804.56;5075415;28;20812;-74
2022/12/15 12:58:37;;;;;;;46.83;16.23;;;;;;;42.45;34.58;100796.72;5075590;28;20436;-76
2022/12/15 13:01:15;;;;;;;55.60;19.03;;;;;;;42.41;35.15;100782.97;5075541;28;20482;-76
2022/12/15 13:03:42;;;;;;;44.33;16.97;;;;;;;42.57;34.82;100770.28;5075260;28;20433;-76
2022/12/15 13:06:41;;;;;;;35.33;16.90;;;;;;;43.07;33.98;100776.53;5075487;28;20421;-76
2022/12/15 13:09:16;;;;;;;42.90;19.40;;;;;;;43.01;34.01;100772.44;5075105;28;20952;-76
2022/12/15 13:11:51;;;;;;;29.57;16.20;;;;;;;42.83;34.32;100769.94;5075382;28;20421;-76
2022/12/15 13:14:39;;;;;;;38.23;16.63;;;;;;;43.13;33.90;100769.69;5074934;28;20458;-76
2022/12/15 13:17:31;;;;;;;36.47;16.90;;;;;;;43.15;34.04;100781.03;5075391;28;20508;-75
2022/12/15 13:20:00;;;;;;;33.53;18.77;;;;;;;43.64;33.20;100778.19;5062512;28;20822;-74
2022/12/15 13:22:38;;;;;;;30.70;18.23;;;;;;;42.91;34.61;100771.75;5074256;28;20417;-73
2022/12/15 13:25:35;;;;;;;36.00;15.67;;;;;;;43.44;33.54;100769.06;5068548;28;20528;-73
2022/12/15 13:28:28;;;;;;;33.10;16.63;;;;;;;43.72;32.81;100769.84;5087419;28;20800;-76
2022/12/15 13:31:12;;;;;;;37.70;19.50;;;;;;;43.14;33.50;100772.06;5072120;28;20940;-74
2022/12/15 13:33:51;;;;;;;35.07;17.20;;;;;;;42.24;35.02;100764.91;5089210;28;20817;-74
2022/12/15 13:36:35;;;;;;;34.53;16.40;;;;;;;43.24;33.79;100745.44;5060350;28;20523;-75
2022/12/15 13:39:13;;;;;;;42.00;17.07;;;;;;;42.67;34.87;100744.50;5075117;28;20417;-74
2022/12/15 13:41:44;;;;;;;46.60;17.77;;;;;;;42.69;34.39;100739.47;5073558;28;20421;-75
2022/12/15 13:44:32;;;;;;;39.97;15.60;;;;;;;42.57;34.54;100742.19;5073348;28;20451;-74
2022/12/15 13:47:19;;;;;;;42.10;18.53;;;;;;;42.52;34.65;100743.22;5070725;28;20413;-71
2022/12/15 13:49:54;;;;;;;40.10;18.37;;;;;;;42.83;33.93;100726.28;5073323;28;20512;-74
2022/12/15 13:52:26;;;;;;;34.83;17.33;;;;;;;43.27;33.03;100729.13;5066825;28;20450;-74
2022/12/15 13:54:57;;;;;;;23.33;14.80;;;;;;;43.46;32.92;100723.06;5070892;28;20460;-73
2022/12/15 13:57:25;;;;;;;40.23;17.30;;;;;;;43.33;33.10;100727.75;5073302;28;20951;-73
2022/12/15 14:00:20;;;;;;;57.23;20.30;;;;;;;43.27;33.65;100712.75;5072619;28;20413;-74